Time;durP1;ratioP1;P1;durP2;ratioP2;P2;SDS_P1;SDS_P2;PMS_P1;PMS_P2;Temp;Humidity;BMP_temperature;BMP_pressure;BME280_temperature;BME280_humidity;BME280_pressure;Samples;Min_cycle;Max_cycle;Signal;HPM_P1;HPM_P2
2023/12/31 00:04:19;;;;;;;4.80;3.30;;;;;;;17.84;58.77;96086.53;10400054;28;20284;-30
2023/12/31 00:09:20;;;;;;;6.10;3.25;;;;;;;17.85;58.60;96062.06;10394615;28;20103;-32
2023/12/31 00:14:20;;;;;;;5.43;2.77;;;;;;;17.86;58.40;96074.72;10403219;28;20044;-30
2023/12/31 00:19:20;;;;;;;6.13;2.90;;;;;;;17.85;58.51;96057.00;10390706;28;20041;-31
2023/12/31 00:24:21;;;;;;;7.10;3.20;;;;;;;17.82;58.71;96039.31;10397838;28;20044;-30
2023/12/31 00:29:22;;;;;;;5.90;3.47;;;;;;;17.86;58.87;96033.34;10399900;28;20395;-29
2023/12/31 00:34:22;;;;;;;6.25;3.22;;;;;;;17.84;58.46;96019.88;10386264;28;20115;-30
2023/12/31 00:39:22;;;;;;;7.47;3.20;;;;;;;17.82;58.67;96008.94;10376931;28;20644;-30
2023/12/31 00:44:25;;;;;;;7.13;3.87;;;;;;;17.84;58.80;96020.69;10391136;28;20419;-30
2023/12/31 00:49:25;;;;;;;4.53;2.67;;;;;;;17.84;58.67;96014.81;10375268;28;20116;-30
2023/12/31 00:54:26;;;;;;;4.77;3.20;;;;;;;17.84;58.87;96017.34;10389597;28;20038;-30
2023/12/31 00:59:26;;;;;;;7.70;2.97;;;;;;;17.80;59.65;95993.75;10384661;28;20034;-29
2023/12/31 01:04:28;;;;;;;6.72;2.95;;;;;;;17.83;59.09;95988.63;10421281;28;20371;-31
2023/12/31 01:09:29;;;;;;;7.72;3.97;;;;;;;17.84;58.92;95992.84;10391020;28;20022;-30
2023/12/31 01:14:30;;;;;;;5.63;2.80;;;;;;;17.84;58.96;95982.72;10395518;28;20080;-29
2023/12/31 01:19:30;;;;;;;4.35;2.40;;;;;;;17.84;59.15;95974.31;10394193;28;20033;-29
2023/12/31 01:24:31;;;;;;;6.47;3.03;;;;;;;17.84;58.87;95972.59;10381880;28;20037;-29
2023/12/31 01:29:33;;;;;;;13.57;3.37;;;;;;;17.84;59.13;95969.25;10393991;28;20280;-30
2023/12/31 01:34:33;;;;;;;8.82;3.50;;;;;;;17.82;58.93;95961.66;10395882;28;20060;-29
2023/12/31 01:39:34;;;;;;;6.88;3.05;;;;;;;17.79;59.00;95936.38;10384111;28;20512;-29
2023/12/31 01:44:35;;;;;;;8.33;4.97;;;;;;;17.82;59.06;95930.44;10391743;28;20037;-30
2023/12/31 01:49:35;;;;;;;6.53;4.20;;;;;;;17.84;58.96;95913.53;10405098;28;20029;-30
2023/12/31 01:54:36;;;;;;;5.65;2.97;;;;;;;17.81;59.04;95913.53;10408209;28;20106;-30
2023/12/31 01:59:37;;;;;;;7.13;2.97;;;;;;;17.75;59.08;95888.31;10390483;28;20045;-30
2023/12/31 02:04:37;;;;;;;7.43;3.65;;;;;;;17.82;58.94;95885.69;10397854;28;20072;-29
2023/12/31 02:09:38;;;;;;;6.83;2.50;;;;;;;17.83;58.91;95889.06;10394904;28;20041;-29
2023/12/31 02:14:38;;;;;;;6.43;2.92;;;;;;;17.82;59.32;95880.63;10395211;28;20296;-30
2023/12/31 02:19:39;;;;;;;5.43;2.75;;;;;;;17.82;58.79;95872.22;10400945;28;20029;-30
2023/12/31 02:24:47;;;;;;;6.43;3.37;;;;;;;17.81;59.24;95858.69;10400936;28;20384;-29
2023/12/31 02:29:48;;;;;;;4.15;2.50;;;;;;;17.77;58.86;95843.56;10402176;28;20420;-30
2023/12/31 02:34:48;;;;;;;5.83;2.97;;;;;;;17.82;59.16;95839.28;10384482;28;20041;-30
2023/12/31 02:39:49;;;;;;;6.97;2.77;;;;;;;17.82;59.07;95839.28;10393345;28;20292;-30
2023/12/31 02:44:49;;;;;;;9.83;2.90;;;;;;;17.82;58.95;95836.75;10391297;28;20094;-30
2023/12/31 02:49:49;;;;;;;5.95;3.40;;;;;;;17.78;59.19;95812.31;10383412;28;20025;-29
2023/12/31 02:54:50;;;;;;;4.60;2.87;;;;;;;17.81;59.38;95822.41;10397008;28;20034;-30
2023/12/31 02:59:50;;;;;;;9.77;3.27;;;;;;;17.81;58.87;95805.53;10385638;28;20292;-29
2023/12/31 03:04:51;;;;;;;5.57;2.30;;;;;;;17.81;58.91;95802.16;10395358;28;20147;-30
2023/12/31 03:09:51;;;;;;;4.60;2.53;;;;;;;17.84;58.79;95802.13;10391602;28;20029;-30
2023/12/31 03:14:51;;;;;;;5.57;3.00;;;;;;;17.81;58.85;95776.84;10392557;28;20770;-30
2023/12/31 03:19:52;;;;;;;4.73;2.57;;;;;;;17.81;58.98;95766.69;10393564;28;20412;-30
2023/12/31 03:24:54;;;;;;;5.57;2.40;;;;;;;17.82;58.66;95763.34;10399495;28;20422;-30
2023/12/31 03:29:57;;;;;;;5.60;2.67;;;;;;;17.83;58.57;95752.34;10417041;28;20296;-30
2023/12/31 03:34:58;;;;;;;4.22;2.63;;;;;;;17.82;58.94;95735.50;10388123;28;20039;-30
2023/12/31 03:39:58;;;;;;;9.27;2.70;;;;;;;17.81;58.71;95732.13;10395884;28;20045;-30
2023/12/31 03:44:58;;;;;;;8.00;2.50;;;;;;;17.78;59.02;95721.19;10391587;28;20052;-30
2023/12/31 03:49:59;;;;;;;7.20;3.00;;;;;;;17.81;59.15;95721.13;10393481;28;20029;-30
2023/12/31 03:54:59;;;;;;;6.20;2.30;;;;;;;17.79;59.20;95722.84;10388551;28;20059;-30
2023/12/31 04:00:00;;;;;;;4.47;2.60;;;;;;;17.81;59.24;95726.19;10388312;28;20038;-29
2023/12/31 04:05:02;;;;;;;5.20;2.42;;;;;;;17.81;58.96;95708.47;10401258;28;20411;-31
2023/12/31 04:10:02;;;;;;;7.78;3.05;;;;;;;17.83;59.22;95714.38;10389842;28;20025;-30
2023/12/31 04:15:07;;;;;;;6.57;2.55;;;;;;;17.80;59.29;95704.28;10399156;28;20043;-29
2023/12/31 04:20:09;;;;;;;4.15;2.40;;;;;;;17.78;59.43;95695.88;10396804;28;20042;-30
2023/12/31 04:25:09;;;;;;;4.95;2.58;;;;;;;17.79;59.03;95687.41;10390752;28;20025;-31
2023/12/31 04:30:11;;;;;;;6.72;2.80;;;;;;;17.79;59.29;95672.22;10394720;28;20091;-29
2023/12/31 04:35:11;;;;;;;3.95;2.58;;;;;;;17.80;59.31;95671.38;10392450;28;20036;-30
2023/12/31 04:40:11;;;;;;;6.20;2.90;;;;;;;17.81;59.04;95665.44;10386404;28;20052;-30
2023/12/31 04:45:12;;;;;;;3.80;2.63;;;;;;;17.80;59.00;95659.56;10385267;28;20033;-30
2023/12/31 04:50:12;;;;;;;4.57;2.35;;;;;;;17.80;58.99;95662.09;10385486;28;20096;-30
2023/12/31 04:55:13;;;;;;;6.00;2.47;;;;;;;17.80;59.10;95651.97;10387476;28;20021;-30
2023/12/31 05:00:14;;;;;;;4.10;2.30;;;;;;;17.80;59.08;95661.25;10389618;28;20300;-30
2023/12/31 05:05:14;;;;;;;5.00;3.00;;;;;;;17.79;59.29;95667.16;10399951;28;20537;-31
2023/12/31 05:10:15;;;;;;;3.90;2.22;;;;;;;17.78;59.20;95678.16;10401579;28;20025;-30
2023/12/31 05:15:15;;;;;;;5.73;2.90;;;;;;;17.77;59.42;95695.06;10402373;28;20042;-30
2023/12/31 05:20:15;;;;;;;5.60;2.67;;;;;;;17.80;59.00;95686.56;10399430;28;20088;-30
2023/12/31 05:25:16;;;;;;;5.57;2.42;;;;;;;17.79;58.91;95703.47;10404719;28;20044;-29
2023/12/31 05:30:17;;;;;;;6.32;2.83;;;;;;;17.73;59.29;95697.66;10408553;28;20040;-30
2023/12/31 05:35:18;;;;;;;6.03;2.65;;;;;;;17.77;59.25;95717.00;10397600;28;20068;-30
2023/12/31 05:40:18;;;;;;;8.23;2.80;;;;;;;17.80;59.12;95724.53;10398312;28;20500;-30
2023/12/31 05:45:18;;;;;;;3.17;2.03;;;;;;;17.77;59.28;95714.44;10402562;28;20038;-30
2023/12/31 05:50:19;;;;;;;5.00;2.20;;;;;;;17.77;59.18;95714.44;10404723;28;20403;-30
2023/12/31 05:55:19;;;;;;;6.43;2.50;;;;;;;17.76;59.08;95713.59;10400082;28;20582;-30
2023/12/31 06:00:20;;;;;;;6.93;2.63;;;;;;;17.78;58.99;95716.13;10387987;28;20451;-29
2023/12/31 06:05:21;;;;;;;4.43;2.70;;;;;;;17.78;59.33;95716.13;10405159;28;20068;-30
2023/12/31 06:10:22;;;;;;;5.17;2.33;;;;;;;17.79;59.03;95715.25;10403899;28;20112;-29
2023/12/31 06:15:23;;;;;;;4.32;2.20;;;;;;;17.84;58.52;95709.28;10407587;28;20284;-30
2023/12/31 06:20:26;;;;;;;4.97;2.77;;;;;;;17.87;58.25;95706.72;10390354;28;20057;-30
2023/12/31 06:25:26;;;;;;;4.05;2.15;;;;;;;17.90;58.20;95694.00;10397873;28;20461;-31
2023/12/31 06:30:27;;;;;;;4.90;2.28;;;;;;;17.90;58.52;95680.53;10400625;28;20061;-29
2023/12/31 06:35:27;;;;;;;3.87;2.27;;;;;;;17.91;58.34;95684.72;10397456;28;20445;-35
2023/12/31 06:40:27;;;;;;;3.83;2.07;;;;;;;17.86;58.08;95687.34;10406176;28;20041;-30
2023/12/31 06:45:28;;;;;;;3.63;2.00;;;;;;;17.94;57.46;95687.22;10396295;28;20431;-29
2023/12/31 06:50:28;;;;;;;5.37;1.97;;;;;;;17.95;57.77;95676.22;10399198;28;20428;-30
2023/12/31 06:55:28;;;;;;;4.00;2.27;;;;;;;17.96;58.07;95670.28;10390966;28;20034;-29
2023/12/31 07:00:29;;;;;;;5.43;2.30;;;;;;;17.99;57.95;95667.72;10397656;28;20030;-30
2023/12/31 07:05:29;;;;;;;4.53;2.33;;;;;;;17.98;57.71;95671.13;10396120;28;20041;-29
2023/12/31 07:10:29;;;;;;;3.60;2.17;;;;;;;17.99;57.83;95675.34;10399167;28;20036;-30
2023/12/31 07:15:30;;;;;;;8.20;2.60;;;;;;;17.98;58.25;95671.13;10397278;28;20048;-29
2023/12/31 07:20:31;;;;;;;5.45;2.47;;;;;;;17.99;58.17;95677.88;10394477;28;20034;-29
2023/12/31 07:25:32;;;;;;;5.50;3.17;;;;;;;17.99;58.23;95665.19;10395512;28;20038;-29
2023/12/31 07:30:32;;;;;;;2.83;2.08;;;;;;;17.99;58.14;95642.41;10394173;28;20036;-32
2023/12/31 07:35:36;;;;;;;4.23;2.13;;;;;;;17.98;58.59;95648.34;10397803;28;20043;-30
2023/12/31 07:40:36;;;;;;;3.60;2.47;;;;;;;17.98;58.86;95644.09;10393485;28;20083;-29
2023/12/31 07:45:36;;;;;;;3.87;1.80;;;;;;;17.97;58.42;95651.69;10390971;28;20413;-30
2023/12/31 07:50:37;;;;;;;3.10;1.80;;;;;;;17.97;58.34;95628.91;10396299;28;20106;-30
2023/12/31 07:55:37;;;;;;;3.80;1.97;;;;;;;17.96;58.67;95639.91;10397282;28;20520;-31
2023/12/31 08:00:37;;;;;;;2.33;1.77;;;;;;;17.89;58.90;95631.56;10399884;28;20488;-29
2023/12/31 08:05:38;;;;;;;2.93;1.60;;;;;;;17.94;58.74;95641.63;10388655;28;20488;-29
2023/12/31 08:10:40;;;;;;;3.00;1.83;;;;;;;17.96;57.96;95633.16;10395889;28;20511;-30
2023/12/31 08:15:41;;;;;;;3.03;2.10;;;;;;;17.95;58.62;95638.22;10389228;28;20041;-30
2023/12/31 08:20:42;;;;;;;4.13;1.83;;;;;;;17.95;58.44;95623.03;10390581;28;20040;-30
2023/12/31 08:25:42;;;;;;;2.42;1.80;;;;;;;17.96;58.19;95614.56;10392219;28;20037;-31
2023/12/31 08:30:43;;;;;;;3.03;1.70;;;;;;;17.96;58.29;95619.66;10396589;28;20432;-29
2023/12/31 08:35:43;;;;;;;4.73;1.87;;;;;;;17.95;58.24;95607.84;10389314;28;20268;-29
2023/12/31 08:40:44;;;;;;;3.45;1.75;;;;;;;17.95;58.17;95595.19;10395213;28;20026;-30
2023/12/31 08:45:44;;;;;;;3.57;1.73;;;;;;;17.95;57.80;95593.50;10396076;28;20029;-29
2023/12/31 08:50:44;;;;;;;5.37;1.40;;;;;;;17.94;57.62;95591.84;10398158;28;20021;-29
2023/12/31 08:55:45;;;;;;;6.23;2.13;;;;;;;17.95;57.38;95580.00;10394882;28;20488;-32
2023/12/31 09:00:45;;;;;;;3.70;1.57;;;;;;;17.94;57.47;95568.19;10394794;28;20064;-29
2023/12/31 09:05:46;;;;;;;2.10;1.60;;;;;;;17.94;57.70;95583.38;10396499;28;20113;-30
2023/12/31 09:10:46;;;;;;;2.57;1.47;;;;;;;17.95;57.25;95572.41;10389691;28;20052;-30
2023/12/31 09:15:47;;;;;;;2.00;1.80;;;;;;;17.94;56.16;95566.53;10392979;28;20037;-29
2023/12/31 09:20:47;;;;;;;3.10;1.50;;;;;;;17.98;56.55;95567.31;10384679;28;20034;-29
2023/12/31 09:25:47;;;;;;;3.20;1.80;;;;;;;17.96;57.12;95558.88;10397298;28;20045;-30
2023/12/31 09:30:48;;;;;;;3.73;2.37;;;;;;;17.99;56.91;95553.78;10390863;28;20725;-30
2023/12/31 09:35:51;;;;;;;2.50;2.27;;;;;;;17.98;57.12;95552.13;10389337;28;20064;-29
2023/12/31 09:40:51;;;;;;;7.05;2.42;;;;;;;17.99;57.05;95559.66;10391755;28;20061;-29
2023/12/31 09:45:53;;;;;;;3.45;1.90;;;;;;;17.99;57.14;95554.59;10394096;28;20124;-30
2023/12/31 09:50:54;;;;;;;3.15;1.73;;;;;;;17.94;57.08;95545.41;10401693;28;20408;-30
2023/12/31 09:55:56;;;;;;;5.53;2.55;;;;;;;17.98;57.15;95557.19;10403309;28;20040;-30
2023/12/31 10:00:59;;;;;;;4.70;1.73;;;;;;;18.00;56.62;95556.25;10402898;28;20051;-29
2023/12/31 10:06:02;;;;;;;5.78;2.10;;;;;;;18.01;56.70;95552.06;10399284;28;20125;-30
2023/12/31 10:11:03;;;;;;;6.60;2.50;;;;;;;18.07;57.18;95536.75;10403842;28;20038;-30
2023/12/31 10:16:13;;;;;;;3.60;2.25;;;;;;;18.11;57.12;95568.75;10404119;28;20426;-30
2023/12/31 10:21:14;;;;;;;3.78;2.80;;;;;;;18.04;58.21;95557.91;10404968;28;20052;-31
2023/12/31 10:26:15;;;;;;;5.28;2.45;;;;;;;18.04;58.49;95562.97;10407270;28;20041;-30
2023/12/31 10:31:15;;;;;;;6.18;2.10;;;;;;;18.09;57.45;95565.41;10413234;28;20036;-30
2023/12/31 10:36:20;;;;;;;11.10;4.53;;;;;;;18.10;58.09;95567.09;10403543;28;20037;-30
2023/12/31 10:41:21;;;;;;;8.65;4.28;;;;;;;18.07;58.46;95588.22;10407196;28;20233;-30
2023/12/31 10:46:24;;;;;;;12.23;4.90;;;;;;;18.41;59.19;95669.63;10398545;28;20033;-30
2023/12/31 10:51:24;;;;;;;11.82;6.45;;;;;;;18.24;57.84;95704.50;10400200;28;20028;-30
2023/12/31 10:56:25;;;;;;;16.05;7.13;;;;;;;18.19;57.63;95749.31;10398499;28;20044;-29
2023/12/31 11:01:25;;;;;;;16.75;7.05;;;;;;;18.22;57.71;95770.38;10397777;28;20431;-31
2023/12/31 11:06:27;;;;;;;15.85;5.30;;;;;;;18.21;56.56;95767.84;10408954;28;20047;-30
2023/12/31 11:11:27;;;;;;;14.52;6.25;;;;;;;18.26;57.01;95768.66;10407967;28;20539;-30
2023/12/31 11:16:49;;;;;;;17.47;6.60;;;;;;;18.09;58.67;95768.03;10403640;28;20030;-30
2023/12/31 11:22:11;;;;;;;15.55;5.80;;;;;;;18.16;58.15;95790.72;10412081;28;20853;-30
2023/12/31 11:27:19;;;;;;;9.40;5.32;;;;;;;18.08;58.67;95779.03;10408236;28;20076;-30
2023/12/31 11:32:19;;;;;;;15.27;5.68;;;;;;;18.08;58.78;95787.44;10400305;28;20112;-30
2023/12/31 11:37:23;;;;;;;14.27;4.53;;;;;;;18.14;58.59;95789.06;10399085;28;20466;-30
2023/12/31 11:42:25;;;;;;;13.52;4.82;;;;;;;18.09;57.90;95762.97;10392258;28;20099;-30
2023/12/31 11:47:26;;;;;;;13.40;4.75;;;;;;;18.10;57.09;95757.06;10396924;28;20140;-29
2023/12/31 11:52:41;;;;;;;14.50;5.68;;;;;;;18.16;57.76;95779.78;10399760;28;20025;-29
2023/12/31 11:57:48;;;;;;;13.35;4.43;;;;;;;18.13;58.21;95784.84;10395997;28;20807;-30
2023/12/31 12:02:50;;;;;;;17.35;4.60;;;;;;;18.10;58.34;95789.97;10397617;28;20453;-29
2023/12/31 12:07:51;;;;;;;14.35;4.55;;;;;;;18.07;58.20;95795.09;10401055;28;20561;-28
2023/12/31 12:12:56;;;;;;;9.43;4.10;;;;;;;17.99;57.73;95776.63;10397941;28;20030;-30
2023/12/31 12:17:56;;;;;;;8.43;3.47;;;;;;;18.04;57.83;95760.50;10391741;28;20180;-30
2023/12/31 12:22:57;;;;;;;14.23;3.20;;;;;;;18.03;56.58;95765.56;10399706;28;20071;-29
2023/12/31 12:27:57;;;;;;;10.43;3.65;;;;;;;18.09;56.63;95757.91;10397175;28;20522;-25
2023/12/31 12:33:00;;;;;;;11.03;3.73;;;;;;;18.13;56.81;95769.66;10400441;28;20039;-30
2023/12/31 12:38:00;;;;;;;16.85;4.00;;;;;;;18.19;56.45;95761.97;10396356;28;20041;-30
2023/12/31 12:43:04;;;;;;;10.57;3.07;;;;;;;18.21;55.03;95757.72;10400425;28;20074;-30
2023/12/31 12:48:05;;;;;;;24.35;3.67;;;;;;;18.17;54.92;95766.25;10394614;28;20758;-29
2023/12/31 12:53:05;;;;;;;35.97;5.13;;;;;;;18.05;53.47;95748.66;10397679;28;20036;-30
2023/12/31 12:58:06;;;;;;;15.93;3.63;;;;;;;18.19;56.89;95761.97;10397129;28;20091;-30
2023/12/31 13:03:06;;;;;;;12.13;4.10;;;;;;;18.20;56.98;95764.50;10401320;28;20041;-30
2023/12/31 13:08:07;;;;;;;10.47;4.07;;;;;;;18.25;55.18;95764.44;10396111;28;20030;-30
2023/12/31 13:13:07;;;;;;;13.13;3.72;;;;;;;18.28;55.06;95759.31;10399319;28;20059;-30
2023/12/31 13:18:08;;;;;;;12.77;3.65;;;;;;;18.31;55.40;95761.81;10392928;28;20045;-32
2023/12/31 13:23:09;;;;;;;12.13;3.45;;;;;;;18.27;54.88;95760.19;10400829;28;20029;-30
2023/12/31 13:28:09;;;;;;;9.18;3.72;;;;;;;18.31;54.68;95760.16;10409631;28;20037;-30
2023/12/31 13:33:10;;;;;;;8.23;3.10;;;;;;;18.32;54.87;95755.94;10404853;28;20438;-30
2023/12/31 13:38:21;;;;;;;8.85;4.13;;;;;;;18.33;54.57;95768.56;10402050;28;20095;-29
2023/12/31 13:43:22;;;;;;;6.32;3.53;;;;;;;18.29;54.95;95766.94;10403221;28;20042;-30
2023/12/31 13:48:22;;;;;;;6.25;3.50;;;;;;;18.31;54.33;95755.06;10401270;28;20466;-30
2023/12/31 13:53:23;;;;;;;11.47;3.37;;;;;;;18.32;54.35;95763.53;10401532;28;20041;-30
2023/12/31 13:58:23;;;;;;;7.22;2.75;;;;;;;18.29;54.19;95736.53;10400109;28;20048;-30
2023/12/31 14:03:24;;;;;;;8.02;2.72;;;;;;;18.33;54.30;95727.19;10401976;28;20102;-29
2023/12/31 14:08:24;;;;;;;7.72;3.05;;;;;;;18.35;54.50;95715.31;10401594;28;20033;-31
2023/12/31 14:13:25;;;;;;;6.10;2.37;;;;;;;18.36;54.36;95699.25;10400389;28;20523;-30
2023/12/31 14:18:25;;;;;;;5.47;2.40;;;;;;;18.38;54.51;95700.06;10401685;28;20029;-30
2023/12/31 14:23:26;;;;;;;12.67;3.13;;;;;;;18.39;54.90;95717.78;10399352;28;20033;-30
2023/12/31 14:28:26;;;;;;;13.85;3.47;;;;;;;18.42;54.67;95727.06;10399015;28;20116;-31
2023/12/31 14:33:26;;;;;;;9.27;3.47;;;;;;;18.42;54.85;95757.47;10398934;28;20044;-30
2023/12/31 14:38:27;;;;;;;6.22;3.17;;;;;;;18.41;55.51;95758.31;10399846;28;20042;-29
2023/12/31 14:43:27;;;;;;;10.83;2.60;;;;;;;18.43;54.67;95789.53;10396385;28;20061;-30
2023/12/31 14:48:28;;;;;;;8.07;2.63;;;;;;;18.42;55.07;95800.53;10399173;28;20037;-30
2023/12/31 14:53:29;;;;;;;8.80;2.90;;;;;;;18.45;54.96;95793.72;10399975;28;20388;-30
2023/12/31 14:58:30;;;;;;;6.30;2.33;;;;;;;18.50;54.42;95786.06;10401609;28;20029;-30
2023/12/31 15:03:30;;;;;;;7.85;2.63;;;;;;;18.50;54.63;95793.66;10397089;28;20439;-32
2023/12/31 15:08:31;;;;;;;7.03;2.43;;;;;;;18.53;54.61;95786.00;10401725;28;20040;-30
2023/12/31 15:13:33;;;;;;;12.37;2.50;;;;;;;18.60;55.40;95747.03;10400607;28;20045;-30
2023/12/31 15:18:33;;;;;;;5.90;2.30;;;;;;;18.59;54.73;95747.91;10398374;28;20727;-30
2023/12/31 15:23:34;;;;;;;9.60;3.17;;;;;;;18.63;55.18;95760.50;10396281;28;20091;-29
2023/12/31 15:28:35;;;;;;;15.20;4.37;;;;;;;18.50;57.28;95809.69;10396768;28;20044;-30
2023/12/31 15:33:36;;;;;;;12.65;4.13;;;;;;;18.32;55.34;95816.75;10398561;28;20037;-30
2023/12/31 15:38:38;;;;;;;15.50;3.25;;;;;;;18.57;55.97;95818.88;10399358;28;20037;-29
2023/12/31 15:43:38;;;;;;;11.93;2.47;;;;;;;18.69;55.67;95812.81;10403308;28;20034;-30
2023/12/31 15:48:39;;;;;;;5.67;2.30;;;;;;;18.75;56.47;95833.00;10401100;28;20037;-30
2023/12/31 15:53:39;;;;;;;10.65;2.22;;;;;;;18.80;55.78;95841.34;10401405;28;20288;-30
2023/12/31 15:58:40;;;;;;;8.43;2.83;;;;;;;18.81;56.04;95817.66;10405623;28;20091;-30
2023/12/31 16:03:40;;;;;;;8.05;2.58;;;;;;;18.85;55.80;95814.25;10399429;28;20296;-30
2023/12/31 16:08:41;;;;;;;12.90;3.73;;;;;;;18.04;51.41;95815.38;10400782;28;20120;-30
2023/12/31 16:13:41;;;;;;;11.75;3.53;;;;;;;18.10;51.64;95815.31;10401000;28;20120;-31
2023/12/31 16:18:42;;;;;;;6.13;2.75;;;;;;;18.55;52.67;95814.69;10393307;28;20041;-30
2023/12/31 16:23:42;;;;;;;12.53;3.00;;;;;;;18.60;53.77;95823.91;10396869;28;20029;-30
2023/12/31 16:28:42;;;;;;;10.37;3.63;;;;;;;18.78;55.79;95832.94;10401338;28;20029;-30
2023/12/31 16:33:43;;;;;;;10.50;2.83;;;;;;;18.86;55.30;95826.91;10397266;28;20047;-30
2023/12/31 16:38:43;;;;;;;10.83;3.03;;;;;;;18.98;56.42;95847.00;10400263;28;20026;-30
2023/12/31 16:43:43;;;;;;;13.03;3.03;;;;;;;19.04;57.12;95840.97;10403752;28;20041;-30
2023/12/31 16:48:44;;;;;;;11.23;2.90;;;;;;;19.10;57.87;95830.75;10395102;28;20408;-30
2023/12/31 16:53:44;;;;;;;20.67;4.37;;;;;;;19.19;57.69;95830.63;10401053;28;20299;-30
2023/12/31 16:58:44;;;;;;;7.27;2.30;;;;;;;19.27;57.30;95818.63;10410437;28;20109;-30
2023/12/31 17:03:48;;;;;;;9.37;2.23;;;;;;;19.27;58.11;95849.09;10415351;28;20038;-27
2023/12/31 17:08:49;;;;;;;18.42;3.13;;;;;;;19.36;58.17;95854.00;10418559;28;20057;-31
2023/12/31 17:13:49;;;;;;;9.77;2.57;;;;;;;19.40;57.95;95869.16;10419275;28;20039;-31
2023/12/31 17:18:49;;;;;;;15.87;2.80;;;;;;;19.50;57.95;95857.16;10420442;28;20041;-30
2023/12/31 17:23:50;;;;;;;16.30;3.10;;;;;;;19.52;57.94;95860.50;10409816;28;20662;-29
2023/12/31 17:28:50;;;;;;;19.90;4.03;;;;;;;19.58;58.32;95855.31;10408993;28;20280;-31
2023/12/31 17:33:51;;;;;;;13.77;3.87;;;;;;;19.67;58.10;95875.47;10409647;28;20448;-30
2023/12/31 17:38:51;;;;;;;17.33;3.22;;;;;;;19.80;58.27;95867.59;10408701;28;20295;-29
2023/12/31 17:43:51;;;;;;;12.30;3.53;;;;;;;19.75;58.42;95864.28;10410162;28;20059;-30
2023/12/31 17:48:52;;;;;;;23.13;3.83;;;;;;;19.74;58.51;95871.91;10406317;28;20594;-30
2023/12/31 17:53:52;;;;;;;17.83;4.27;;;;;;;19.86;58.35;95875.06;10408274;28;20408;-30
2023/12/31 17:58:55;;;;;;;22.30;5.07;;;;;;;19.80;58.00;95879.44;10407822;28;20292;-30
2023/12/31 18:03:55;;;;;;;17.60;5.13;;;;;;;19.76;57.75;95880.38;10408100;28;20135;-30
2023/12/31 18:08:56;;;;;;;29.03;9.80;;;;;;;19.71;58.75;95889.75;10406545;28;20043;-30
2023/12/31 18:13:56;;;;;;;25.90;13.95;;;;;;;19.68;57.64;95880.50;10408272;28;20096;-30
2023/12/31 18:18:57;;;;;;;42.83;23.70;;;;;;;19.66;57.84;95914.41;10407237;28;20250;-30
2023/12/31 18:23:57;;;;;;;40.77;24.83;;;;;;;19.66;57.59;95911.88;10406485;28;20037;-30
2023/12/31 18:28:57;;;;;;;44.37;25.17;;;;;;;19.61;57.58;95913.66;10407892;28;20034;-30
2023/12/31 18:33:58;;;;;;;50.77;31.57;;;;;;;19.64;57.45;95921.19;10405585;28;20095;-31
2023/12/31 18:38:59;;;;;;;65.05;39.80;;;;;;;19.65;57.17;95922.88;10411164;28;20795;-30
2023/12/31 18:43:59;;;;;;;85.70;47.00;;;;;;;19.65;57.08;95921.19;10403583;28;20098;-30
2023/12/31 18:48:59;;;;;;;88.73;56.97;;;;;;;19.64;56.90;95926.28;10409555;28;20033;-31
2023/12/31 18:54:00;;;;;;;133.03;83.33;;;;;;;19.64;56.57;95916.13;10403043;28;20296;-30
2023/12/31 18:59:02;;;;;;;168.10;96.20;;;;;;;19.65;56.38;95925.41;10403698;28;20036;-30
2023/12/31 19:04:03;;;;;;;175.75;99.85;;;;;;;19.69;56.05;95929.59;10401741;28;20638;-30
2023/12/31 19:09:06;;;;;;;200.48;122.75;;;;;;;19.59;55.73;95905.22;10405333;28;20045;-30
2023/12/31 19:14:06;;;;;;;240.63;145.38;;;;;;;19.55;55.80;95895.97;10406451;28;20030;-30
2023/12/31 19:19:07;;;;;;;239.07;156.47;;;;;;;19.61;55.41;95913.66;10403775;28;20040;-30
2023/12/31 19:24:08;;;;;;;162.90;105.78;;;;;;;19.14;52.42;95918.63;10412297;28;20427;-29
2023/12/31 19:29:08;;;;;;;151.23;102.95;;;;;;;19.27;50.73;95915.06;10402928;28;20091;-30
2023/12/31 19:34:09;;;;;;;170.75;115.68;;;;;;;19.42;51.98;95920.72;10390704;28;20033;-32
2023/12/31 19:39:10;;;;;;;128.52;91.55;;;;;;;19.31;51.27;95916.69;10399016;28;20116;-30
2023/12/31 19:44:11;;;;;;;132.07;87.20;;;;;;;19.38;51.02;95905.56;10401720;28;20034;-29
2023/12/31 19:49:11;;;;;;;127.83;87.03;;;;;;;19.41;51.69;95903.81;10388843;28;20038;-30
2023/12/31 19:54:11;;;;;;;131.73;85.73;;;;;;;19.50;52.14;95911.28;10402031;28;20033;-30
2023/12/31 19:59:12;;;;;;;87.67;58.87;;;;;;;19.25;49.97;95921.88;10403392;28;20055;-30
2023/12/31 20:04:12;;;;;;;81.37;54.43;;;;;;;19.28;50.53;95921.81;10396238;28;20299;-30
2023/12/31 20:09:13;;;;;;;83.93;58.70;;;;;;;19.33;51.16;95923.41;10393723;28;20411;-30
2023/12/31 20:14:14;;;;;;;84.53;53.00;;;;;;;19.44;51.58;95934.22;10396316;28;20029;-30
2023/12/31 20:19:15;;;;;;;66.80;40.28;;;;;;;19.17;50.76;95929.56;10400513;28;20124;-30
2023/12/31 20:24:18;;;;;;;66.60;40.47;;;;;;;19.40;51.37;95934.28;10390096;28;20033;-30
2023/12/31 20:29:18;;;;;;;48.22;27.08;;;;;;;19.09;50.37;95940.69;10391067;28;20124;-30
2023/12/31 20:34:19;;;;;;;53.93;30.00;;;;;;;19.31;50.60;95955.59;10398233;28;20102;-30
2023/12/31 20:39:19;;;;;;;48.28;28.88;;;;;;;19.41;51.28;95958.84;10395642;28;20033;-28
2023/12/31 20:44:20;;;;;;;46.00;28.17;;;;;;;19.50;51.32;95958.69;10395556;28;20033;-30
2023/12/31 20:49:20;;;;;;;47.30;27.60;;;;;;;19.54;51.87;95967.94;10385587;28;20040;-30
2023/12/31 20:54:21;;;;;;;34.00;22.38;;;;;;;19.23;50.43;95966.72;10391237;28;20091;-30
2023/12/31 20:59:22;;;;;;;21.80;12.67;;;;;;;18.80;45.66;95973.22;10388634;28;20038;-29
2023/12/31 21:04:23;;;;;;;26.58;21.15;;;;;;;18.45;44.04;95955.94;10401452;28;20057;-31
2023/12/31 21:09:24;;;;;;;23.77;13.10;;;;;;;18.41;44.06;95969.47;10397021;28;20108;-30
2023/12/31 21:14:25;;;;;;;25.73;15.77;;;;;;;18.50;42.87;95978.69;10383350;28;20401;-30
2023/12/31 21:19:25;;;;;;;124.97;91.78;;;;;;;18.37;42.64;95954.34;10389010;28;20120;-31
2023/12/31 21:24:26;;;;;;;62.97;49.63;;;;;;;18.52;43.12;95966.81;10373688;28;20527;-29
2023/12/31 21:29:26;;;;;;;98.33;79.33;;;;;;;18.48;42.66;95966.03;10387628;28;20303;-30
2023/12/31 21:34:29;;;;;;;61.07;47.60;;;;;;;18.67;45.32;95959.03;10381452;28;20037;-30
2023/12/31 21:39:30;;;;;;;55.67;47.05;;;;;;;18.90;46.19;95959.53;10390297;28;20120;-30
2023/12/31 21:44:31;;;;;;;57.03;44.85;;;;;;;19.05;46.86;95954.25;10383390;28;20034;-32
2023/12/31 21:49:31;;;;;;;55.80;42.70;;;;;;;19.18;47.91;95943.09;10398925;28;20047;-30
2023/12/31 21:54:31;;;;;;;47.87;38.17;;;;;;;19.26;49.14;95951.47;10397909;28;20037;-30
2023/12/31 21:59:32;;;;;;;48.40;40.03;;;;;;;19.32;49.29;95961.50;10404257;28;20462;-30
2023/12/31 22:04:33;;;;;;;44.10;36.43;;;;;;;19.37;50.48;95968.22;10403527;28;20481;-29
2023/12/31 22:09:33;;;;;;;45.38;36.55;;;;;;;19.42;50.64;95950.38;10410817;28;20506;-30
2023/12/31 22:14:33;;;;;;;42.53;36.10;;;;;;;19.45;51.12;95956.22;10411199;28;20029;-30
2023/12/31 22:19:34;;;;;;;40.87;34.97;;;;;;;19.47;51.26;95959.59;10400065;28;20033;-30
2023/12/31 22:24:34;;;;;;;42.10;32.97;;;;;;;19.50;51.43;95953.63;10404199;28;20034;-30
2023/12/31 22:29:34;;;;;;;40.73;33.27;;;;;;;19.49;51.63;95967.19;10392041;28;20037;-30
2023/12/31 22:34:36;;;;;;;40.73;33.03;;;;;;;19.52;51.79;95956.97;10418365;28;20033;-31
2023/12/31 22:39:38;;;;;;;35.28;31.38;;;;;;;19.49;52.24;95952.78;10405367;28;20087;-30
2023/12/31 22:44:39;;;;;;;38.70;30.73;;;;;;;19.61;53.87;95966.97;10407467;28;20087;-30
2023/12/31 22:49:39;;;;;;;40.27;23.50;;;;;;;19.42;50.96;95953.72;10400827;28;20561;-29
2023/12/31 22:54:39;;;;;;;22.27;18.33;;;;;;;19.23;49.02;95951.50;10409419;28;20349;-29
2023/12/31 22:59:42;;;;;;;30.43;20.17;;;;;;;19.38;50.83;95957.19;10420566;28;20355;-30
2023/12/31 23:04:42;;;;;;;29.38;20.67;;;;;;;19.47;51.40;95948.56;10401426;28;20045;-29
2023/12/31 23:09:45;;;;;;;27.23;22.00;;;;;;;19.52;51.89;95967.94;10412519;28;20037;-30